sensor_id;sensor_type;location;lat;lon;timestamp;P1;durP1;ratioP1;P2;durP2;ratioP2
71610;SDS011;59459;51.172;6.682;2022-08-14T00:02:09;7.40;;;4.27;;
71610;SDS011;59459;51.172;6.682;2022-08-14T00:04:35;6.80;;;4.40;;
71610;SDS011;59459;51.172;6.682;2022-08-14T00:07:02;5.75;;;3.95;;
71610;SDS011;59459;51.172;6.682;2022-08-14T00:09:27;8.67;;;4.27;;
71610;SDS011;59459;51.172;6.682;2022-08-14T00:11:52;8.07;;;4.57;;
71610;SDS011;59459;51.172;6.682;2022-08-14T00:14:18;8.18;;;4.63;;
71610;SDS011;59459;51.172;6.682;2022-08-14T00:16:43;7.57;;;3.80;;
71610;SDS011;59459;51.172;6.682;2022-08-14T00:19:09;7.93;;;4.83;;
71610;SDS011;59459;51.172;6.682;2022-08-14T00:21:34;11.03;;;4.73;;
71610;SDS011;59459;51.172;6.682;2022-08-14T00:24:00;7.25;;;4.50;;
71610;SDS011;59459;51.172;6.682;2022-08-14T00:26:26;7.77;;;4.30;;
71610;SDS011;59459;51.172;6.682;2022-08-14T00:28:51;7.57;;;4.63;;
71610;SDS011;59459;51.172;6.682;2022-08-14T00:31:17;7.72;;;4.78;;
71610;SDS011;59459;51.172;6.682;2022-08-14T00:33:42;8.73;;;4.60;;
71610;SDS011;59459;51.172;6.682;2022-08-14T00:36:07;8.60;;;5.13;;
71610;SDS011;59459;51.172;6.682;2022-08-14T00:38:34;8.03;;;4.80;;
71610;SDS011;59459;51.172;6.682;2022-08-14T00:40:59;8.18;;;5.32;;
71610;SDS011;59459;51.172;6.682;2022-08-14T00:43:24;7.87;;;4.87;;
71610;SDS011;59459;51.172;6.682;2022-08-14T00:45:50;7.73;;;4.57;;
71610;SDS011;59459;51.172;6.682;2022-08-14T00:48:15;10.57;;;4.73;;
71610;SDS011;59459;51.172;6.682;2022-08-14T00:50:42;7.57;;;5.00;;
71610;SDS011;59459;51.172;6.682;2022-08-14T00:53:08;7.80;;;4.97;;
71610;SDS011;59459;51.172;6.682;2022-08-14T00:55:34;8.60;;;5.10;;
71610;SDS011;59459;51.172;6.682;2022-08-14T00:57:59;8.55;;;5.00;;
71610;SDS011;59459;51.172;6.682;2022-08-14T01:00:43;8.68;;;5.30;;
71610;SDS011;59459;51.172;6.682;2022-08-14T01:03:08;9.40;;;5.00;;
71610;SDS011;59459;51.172;6.682;2022-08-14T01:05:33;7.53;;;4.87;;
71610;SDS011;59459;51.172;6.682;2022-08-14T01:07:59;8.77;;;5.13;;
71610;SDS011;59459;51.172;6.682;2022-08-14T01:10:26;7.75;;;4.88;;
71610;SDS011;59459;51.172;6.682;2022-08-14T01:13:11;8.07;;;4.70;;
71610;SDS011;59459;51.172;6.682;2022-08-14T01:15:38;8.73;;;4.70;;
71610;SDS011;59459;51.172;6.682;2022-08-14T01:18:03;7.83;;;5.43;;
71610;SDS011;59459;51.172;6.682;2022-08-14T01:20:47;8.80;;;5.30;;
71610;SDS011;59459;51.172;6.682;2022-08-14T01:23:27;7.70;;;4.97;;
71610;SDS011;59459;51.172;6.682;2022-08-14T01:25:53;8.82;;;4.95;;
71610;SDS011;59459;51.172;6.682;2022-08-14T01:28:19;8.60;;;4.93;;
71610;SDS011;59459;51.172;6.682;2022-08-14T01:30:46;9.02;;;5.35;;
71610;SDS011;59459;51.172;6.682;2022-08-14T01:33:12;9.13;;;5.35;;
71610;SDS011;59459;51.172;6.682;2022-08-14T01:35:37;7.63;;;4.47;;
71610;SDS011;59459;51.172;6.682;2022-08-14T01:38:04;8.48;;;5.38;;
71610;SDS011;59459;51.172;6.682;2022-08-14T01:40:29;7.90;;;5.10;;
71610;SDS011;59459;51.172;6.682;2022-08-14T01:42:55;9.18;;;5.78;;
71610;SDS011;59459;51.172;6.682;2022-08-14T01:45:21;9.73;;;5.40;;
71610;SDS011;59459;51.172;6.682;2022-08-14T01:47:46;11.83;;;5.43;;
71610;SDS011;59459;51.172;6.682;2022-08-14T01:50:11;8.43;;;5.40;;
71610;SDS011;59459;51.172;6.682;2022-08-14T01:52:37;10.52;;;6.00;;
71610;SDS011;59459;51.172;6.682;2022-08-14T01:55:03;10.77;;;6.00;;
71610;SDS011;59459;51.172;6.682;2022-08-14T01:57:30;8.93;;;5.75;;
71610;SDS011;59459;51.172;6.682;2022-08-14T01:59:55;9.00;;;5.83;;
71610;SDS011;59459;51.172;6.682;2022-08-14T02:02:20;10.43;;;6.15;;
71610;SDS011;59459;51.172;6.682;2022-08-14T02:04:47;11.40;;;5.57;;
71610;SDS011;59459;51.172;6.682;2022-08-14T02:07:12;8.23;;;5.40;;
71610;SDS011;59459;51.172;6.682;2022-08-14T02:09:37;10.43;;;6.23;;
71610;SDS011;59459;51.172;6.682;2022-08-14T02:12:04;9.43;;;5.73;;
71610;SDS011;59459;51.172;6.682;2022-08-14T02:14:30;11.13;;;5.95;;
71610;SDS011;59459;51.172;6.682;2022-08-14T02:16:55;10.00;;;6.47;;
71610;SDS011;59459;51.172;6.682;2022-08-14T02:19:22;9.77;;;5.65;;
71610;SDS011;59459;51.172;6.682;2022-08-14T02:21:48;8.98;;;5.97;;
71610;SDS011;59459;51.172;6.682;2022-08-14T02:24:14;10.43;;;6.13;;
71610;SDS011;59459;51.172;6.682;2022-08-14T02:26:40;9.07;;;5.60;;
71610;SDS011;59459;51.172;6.682;2022-08-14T02:29:07;10.25;;;6.28;;
71610;SDS011;59459;51.172;6.682;2022-08-14T02:31:34;8.77;;;5.18;;
71610;SDS011;59459;51.172;6.682;2022-08-14T02:34:04;11.90;;;6.32;;
71610;SDS011;59459;51.172;6.682;2022-08-14T02:36:29;9.77;;;6.47;;
71610;SDS011;59459;51.172;6.682;2022-08-14T02:38:54;10.67;;;6.47;;
71610;SDS011;59459;51.172;6.682;2022-08-14T02:41:19;10.17;;;6.20;;
71610;SDS011;59459;51.172;6.682;2022-08-14T02:43:45;9.13;;;6.40;;
71610;SDS011;59459;51.172;6.682;2022-08-14T02:46:10;9.67;;;6.13;;
71610;SDS011;59459;51.172;6.682;2022-08-14T02:48:39;10.47;;;5.87;;
71610;SDS011;59459;51.172;6.682;2022-08-14T02:51:06;10.13;;;5.78;;
71610;SDS011;59459;51.172;6.682;2022-08-14T02:53:32;11.40;;;5.97;;
71610;SDS011;59459;51.172;6.682;2022-08-14T02:55:58;9.57;;;5.90;;
71610;SDS011;59459;51.172;6.682;2022-08-14T02:58:23;9.75;;;6.00;;
71610;SDS011;59459;51.172;6.682;2022-08-14T03:00:49;9.97;;;6.30;;
71610;SDS011;59459;51.172;6.682;2022-08-14T03:03:14;10.73;;;5.97;;
71610;SDS011;59459;51.172;6.682;2022-08-14T03:05:41;10.48;;;6.18;;
71610;SDS011;59459;51.172;6.682;2022-08-14T03:08:07;10.37;;;6.20;;
71610;SDS011;59459;51.172;6.682;2022-08-14T03:10:32;13.77;;;6.05;;
71610;SDS011;59459;51.172;6.682;2022-08-14T03:12:58;8.88;;;6.25;;
71610;SDS011;59459;51.172;6.682;2022-08-14T03:15:23;10.97;;;6.03;;
71610;SDS011;59459;51.172;6.682;2022-08-14T03:17:49;9.27;;;6.32;;
71610;SDS011;59459;51.172;6.682;2022-08-14T03:20:17;11.15;;;6.15;;
71610;SDS011;59459;51.172;6.682;2022-08-14T03:22:42;10.90;;;6.40;;
71610;SDS011;59459;51.172;6.682;2022-08-14T03:25:07;11.47;;;6.30;;
71610;SDS011;59459;51.172;6.682;2022-08-14T03:27:32;10.47;;;6.20;;
71610;SDS011;59459;51.172;6.682;2022-08-14T03:29:58;9.90;;;5.83;;
71610;SDS011;59459;51.172;6.682;2022-08-14T03:32:23;8.93;;;5.50;;
71610;SDS011;59459;51.172;6.682;2022-08-14T03:34:49;10.23;;;6.47;;
71610;SDS011;59459;51.172;6.682;2022-08-14T03:37:14;9.60;;;6.10;;
71610;SDS011;59459;51.172;6.682;2022-08-14T03:39:39;9.23;;;6.03;;
71610;SDS011;59459;51.172;6.682;2022-08-14T03:42:04;10.70;;;6.40;;
71610;SDS011;59459;51.172;6.682;2022-08-14T03:44:30;12.10;;;6.63;;
71610;SDS011;59459;51.172;6.682;2022-08-14T03:46:59;11.30;;;6.10;;
71610;SDS011;59459;51.172;6.682;2022-08-14T03:49:24;9.87;;;6.43;;
71610;SDS011;59459;51.172;6.682;2022-08-14T03:51:49;10.27;;;6.07;;
71610;SDS011;59459;51.172;6.682;2022-08-14T03:54:15;12.10;;;7.30;;
71610;SDS011;59459;51.172;6.682;2022-08-14T03:56:40;9.40;;;6.43;;
71610;SDS011;59459;51.172;6.682;2022-08-14T03:59:09;10.52;;;6.30;;
71610;SDS011;59459;51.172;6.682;2022-08-14T04:01:36;11.27;;;7.40;;
71610;SDS011;59459;51.172;6.682;2022-08-14T04:04:01;9.33;;;6.20;;
71610;SDS011;59459;51.172;6.682;2022-08-14T04:06:33;9.65;;;6.70;;
71610;SDS011;59459;51.172;6.682;2022-08-14T04:08:58;10.77;;;6.45;;
71610;SDS011;59459;51.172;6.682;2022-08-14T04:11:24;10.90;;;6.73;;
71610;SDS011;59459;51.172;6.682;2022-08-14T04:13:49;10.38;;;6.55;;
71610;SDS011;59459;51.172;6.682;2022-08-14T04:16:16;9.87;;;6.47;;
71610;SDS011;59459;51.172;6.682;2022-08-14T04:18:43;11.07;;;6.77;;
71610;SDS011;59459;51.172;6.682;2022-08-14T04:21:09;10.07;;;6.13;;
71610;SDS011;59459;51.172;6.682;2022-08-14T04:23:35;11.82;;;7.20;;
71610;SDS011;59459;51.172;6.682;2022-08-14T04:26:03;10.10;;;6.83;;
71610;SDS011;59459;51.172;6.682;2022-08-14T04:28:28;10.05;;;6.47;;
71610;SDS011;59459;51.172;6.682;2022-08-14T04:30:54;12.93;;;6.95;;
71610;SDS011;59459;51.172;6.682;2022-08-14T04:33:19;11.07;;;6.93;;
71610;SDS011;59459;51.172;6.682;2022-08-14T04:35:44;11.77;;;6.40;;
71610;SDS011;59459;51.172;6.682;2022-08-14T04:38:10;11.17;;;6.87;;
71610;SDS011;59459;51.172;6.682;2022-08-14T04:40:54;10.63;;;7.03;;
71610;SDS011;59459;51.172;6.682;2022-08-14T04:43:38;11.77;;;7.00;;
71610;SDS011;59459;51.172;6.682;2022-08-14T04:46:07;11.43;;;6.60;;
71610;SDS011;59459;51.172;6.682;2022-08-14T04:48:33;10.27;;;6.57;;
71610;SDS011;59459;51.172;6.682;2022-08-14T04:50:58;11.53;;;7.13;;
71610;SDS011;59459;51.172;6.682;2022-08-14T04:53:25;11.43;;;6.75;;
71610;SDS011;59459;51.172;6.682;2022-08-14T04:55:50;11.93;;;7.25;;
71610;SDS011;59459;51.172;6.682;2022-08-14T04:58:16;12.10;;;7.37;;
71610;SDS011;59459;51.172;6.682;2022-08-14T05:00:43;11.32;;;6.78;;
71610;SDS011;59459;51.172;6.682;2022-08-14T05:03:08;11.57;;;6.50;;
71610;SDS011;59459;51.172;6.682;2022-08-14T05:05:34;12.07;;;6.97;;
71610;SDS011;59459;51.172;6.682;2022-08-14T05:08:06;12.07;;;6.80;;
71610;SDS011;59459;51.172;6.682;2022-08-14T05:10:33;12.37;;;7.40;;
71610;SDS011;59459;51.172;6.682;2022-08-14T05:12:58;18.05;;;7.10;;
71610;SDS011;59459;51.172;6.682;2022-08-14T05:15:23;11.80;;;7.20;;
71610;SDS011;59459;51.172;6.682;2022-08-14T05:17:54;11.52;;;7.47;;
71610;SDS011;59459;51.172;6.682;2022-08-14T05:20:20;12.63;;;7.50;;
71610;SDS011;59459;51.172;6.682;2022-08-14T05:22:45;11.87;;;7.67;;
71610;SDS011;59459;51.172;6.682;2022-08-14T05:25:10;11.50;;;6.83;;
71610;SDS011;59459;51.172;6.682;2022-08-14T05:27:36;12.43;;;7.32;;
71610;SDS011;59459;51.172;6.682;2022-08-14T05:30:03;13.10;;;8.50;;
71610;SDS011;59459;51.172;6.682;2022-08-14T05:32:29;11.65;;;7.20;;
71610;SDS011;59459;51.172;6.682;2022-08-14T05:34:58;11.97;;;7.30;;
71610;SDS011;59459;51.172;6.682;2022-08-14T05:37:23;12.73;;;7.38;;
71610;SDS011;59459;51.172;6.682;2022-08-14T05:39:48;11.33;;;7.10;;
71610;SDS011;59459;51.172;6.682;2022-08-14T05:42:14;11.40;;;7.30;;
71610;SDS011;59459;51.172;6.682;2022-08-14T05:44:39;11.97;;;7.83;;
71610;SDS011;59459;51.172;6.682;2022-08-14T05:47:04;12.50;;;7.63;;
71610;SDS011;59459;51.172;6.682;2022-08-14T05:49:30;12.43;;;7.70;;
71610;SDS011;59459;51.172;6.682;2022-08-14T05:51:55;13.03;;;7.67;;
71610;SDS011;59459;51.172;6.682;2022-08-14T05:54:21;11.33;;;7.20;;
71610;SDS011;59459;51.172;6.682;2022-08-14T05:56:46;12.77;;;8.30;;
71610;SDS011;59459;51.172;6.682;2022-08-14T05:59:11;12.27;;;7.63;;
71610;SDS011;59459;51.172;6.682;2022-08-14T06:01:36;14.03;;;7.97;;
71610;SDS011;59459;51.172;6.682;2022-08-14T06:04:02;14.90;;;7.93;;
71610;SDS011;59459;51.172;6.682;2022-08-14T06:06:27;12.10;;;7.50;;
71610;SDS011;59459;51.172;6.682;2022-08-14T06:08:52;14.23;;;7.90;;
71610;SDS011;59459;51.172;6.682;2022-08-14T06:11:17;13.00;;;8.00;;
71610;SDS011;59459;51.172;6.682;2022-08-14T06:13:43;13.53;;;7.80;;
71610;SDS011;59459;51.172;6.682;2022-08-14T06:16:08;12.23;;;7.70;;
71610;SDS011;59459;51.172;6.682;2022-08-14T06:18:34;14.13;;;7.72;;
71610;SDS011;59459;51.172;6.682;2022-08-14T06:21:00;13.60;;;8.10;;
71610;SDS011;59459;51.172;6.682;2022-08-14T06:23:25;11.80;;;8.18;;
71610;SDS011;59459;51.172;6.682;2022-08-14T06:25:50;13.27;;;8.43;;
71610;SDS011;59459;51.172;6.682;2022-08-14T06:28:16;13.00;;;8.57;;
71610;SDS011;59459;51.172;6.682;2022-08-14T06:30:42;12.90;;;8.10;;
71610;SDS011;59459;51.172;6.682;2022-08-14T06:33:07;13.33;;;8.13;;
71610;SDS011;59459;51.172;6.682;2022-08-14T06:35:32;13.33;;;7.70;;
71610;SDS011;59459;51.172;6.682;2022-08-14T06:37:58;16.07;;;8.13;;
71610;SDS011;59459;51.172;6.682;2022-08-14T06:40:25;12.48;;;8.70;;
71610;SDS011;59459;51.172;6.682;2022-08-14T06:42:50;13.23;;;8.57;;
71610;SDS011;59459;51.172;6.682;2022-08-14T06:45:16;14.88;;;8.32;;
71610;SDS011;59459;51.172;6.682;2022-08-14T06:47:42;12.47;;;8.40;;
71610;SDS011;59459;51.172;6.682;2022-08-14T06:50:25;13.52;;;8.65;;
71610;SDS011;59459;51.172;6.682;2022-08-14T06:52:51;12.90;;;8.30;;
71610;SDS011;59459;51.172;6.682;2022-08-14T06:55:17;15.63;;;8.33;;
71610;SDS011;59459;51.172;6.682;2022-08-14T06:57:43;14.13;;;8.00;;
71610;SDS011;59459;51.172;6.682;2022-08-14T07:00:19;12.88;;;7.82;;
71610;SDS011;59459;51.172;6.682;2022-08-14T07:02:44;12.52;;;8.32;;
71610;SDS011;59459;51.172;6.682;2022-08-14T07:05:29;12.87;;;7.87;;
71610;SDS011;59459;51.172;6.682;2022-08-14T07:08:18;18.13;;;8.85;;
71610;SDS011;59459;51.172;6.682;2022-08-14T07:10:44;13.10;;;7.72;;
71610;SDS011;59459;51.172;6.682;2022-08-14T07:13:10;13.43;;;8.43;;
71610;SDS011;59459;51.172;6.682;2022-08-14T07:15:35;12.40;;;7.80;;
71610;SDS011;59459;51.172;6.682;2022-08-14T07:18:01;11.75;;;7.70;;
71610;SDS011;59459;51.172;6.682;2022-08-14T07:20:27;12.82;;;7.90;;
71610;SDS011;59459;51.172;6.682;2022-08-14T07:22:54;16.45;;;8.27;;
71610;SDS011;59459;51.172;6.682;2022-08-14T07:25:23;13.93;;;8.07;;
71610;SDS011;59459;51.172;6.682;2022-08-14T07:27:48;12.07;;;8.27;;
71610;SDS011;59459;51.172;6.682;2022-08-14T07:30:13;12.23;;;7.73;;
71610;SDS011;59459;51.172;6.682;2022-08-14T07:32:38;12.03;;;7.80;;
71610;SDS011;59459;51.172;6.682;2022-08-14T07:35:04;11.83;;;8.00;;
71610;SDS011;59459;51.172;6.682;2022-08-14T07:37:29;10.68;;;7.45;;
71610;SDS011;59459;51.172;6.682;2022-08-14T07:39:54;13.10;;;7.73;;
71610;SDS011;59459;51.172;6.682;2022-08-14T07:42:19;11.83;;;7.87;;
71610;SDS011;59459;51.172;6.682;2022-08-14T07:44:46;11.52;;;8.15;;
71610;SDS011;59459;51.172;6.682;2022-08-14T07:47:11;14.87;;;8.07;;
71610;SDS011;59459;51.172;6.682;2022-08-14T07:49:36;10.73;;;7.30;;
71610;SDS011;59459;51.172;6.682;2022-08-14T07:52:02;10.83;;;7.07;;
71610;SDS011;59459;51.172;6.682;2022-08-14T07:54:28;12.50;;;7.60;;
71610;SDS011;59459;51.172;6.682;2022-08-14T07:56:53;10.33;;;7.10;;
71610;SDS011;59459;51.172;6.682;2022-08-14T07:59:18;11.40;;;7.57;;
71610;SDS011;59459;51.172;6.682;2022-08-14T08:01:46;10.73;;;8.00;;
71610;SDS011;59459;51.172;6.682;2022-08-14T08:04:11;12.47;;;7.13;;
71610;SDS011;59459;51.172;6.682;2022-08-14T08:06:37;11.10;;;7.55;;
71610;SDS011;59459;51.172;6.682;2022-08-14T08:09:02;11.97;;;7.10;;
71610;SDS011;59459;51.172;6.682;2022-08-14T08:11:28;11.67;;;7.80;;
71610;SDS011;59459;51.172;6.682;2022-08-14T08:13:56;11.10;;;7.33;;
71610;SDS011;59459;51.172;6.682;2022-08-14T08:16:22;10.52;;;7.15;;
71610;SDS011;59459;51.172;6.682;2022-08-14T08:18:48;10.27;;;7.13;;
71610;SDS011;59459;51.172;6.682;2022-08-14T08:21:14;10.43;;;7.28;;
71610;SDS011;59459;51.172;6.682;2022-08-14T08:23:39;11.10;;;7.80;;
71610;SDS011;59459;51.172;6.682;2022-08-14T08:26:05;12.93;;;7.43;;
71610;SDS011;59459;51.172;6.682;2022-08-14T08:28:30;13.03;;;7.20;;
71610;SDS011;59459;51.172;6.682;2022-08-14T08:30:56;12.10;;;7.20;;
71610;SDS011;59459;51.172;6.682;2022-08-14T08:33:23;11.10;;;6.80;;
71610;SDS011;59459;51.172;6.682;2022-08-14T08:35:50;10.65;;;7.22;;
71610;SDS011;59459;51.172;6.682;2022-08-14T08:38:19;11.30;;;7.70;;
71610;SDS011;59459;51.172;6.682;2022-08-14T08:40:48;13.88;;;7.47;;
71610;SDS011;59459;51.172;6.682;2022-08-14T08:43:18;10.60;;;7.00;;
71610;SDS011;59459;51.172;6.682;2022-08-14T08:45:48;10.23;;;6.95;;
71610;SDS011;59459;51.172;6.682;2022-08-14T08:48:14;12.10;;;7.00;;
71610;SDS011;59459;51.172;6.682;2022-08-14T08:50:39;11.83;;;7.17;;
71610;SDS011;59459;51.172;6.682;2022-08-14T08:53:07;10.27;;;6.82;;
71610;SDS011;59459;51.172;6.682;2022-08-14T08:55:34;10.18;;;6.70;;
71610;SDS011;59459;51.172;6.682;2022-08-14T08:58:01;12.37;;;6.63;;
71610;SDS011;59459;51.172;6.682;2022-08-14T09:00:28;10.52;;;6.60;;
71610;SDS011;59459;51.172;6.682;2022-08-14T09:02:58;9.23;;;6.18;;
71610;SDS011;59459;51.172;6.682;2022-08-14T09:05:24;8.77;;;5.90;;
71610;SDS011;59459;51.172;6.682;2022-08-14T09:07:50;11.27;;;7.20;;
71610;SDS011;59459;51.172;6.682;2022-08-14T09:10:15;10.52;;;6.68;;
71610;SDS011;59459;51.172;6.682;2022-08-14T09:12:40;9.70;;;6.40;;
71610;SDS011;59459;51.172;6.682;2022-08-14T09:15:07;10.27;;;6.47;;
71610;SDS011;59459;51.172;6.682;2022-08-14T09:17:33;9.87;;;6.23;;
71610;SDS011;59459;51.172;6.682;2022-08-14T09:19:59;9.50;;;5.78;;
71610;SDS011;59459;51.172;6.682;2022-08-14T09:22:24;10.60;;;6.47;;
71610;SDS011;59459;51.172;6.682;2022-08-14T09:24:50;10.57;;;6.50;;
71610;SDS011;59459;51.172;6.682;2022-08-14T09:27:16;8.90;;;6.20;;
71610;SDS011;59459;51.172;6.682;2022-08-14T09:29:41;10.87;;;6.20;;
71610;SDS011;59459;51.172;6.682;2022-08-14T09:32:06;9.77;;;6.43;;
71610;SDS011;59459;51.172;6.682;2022-08-14T09:39:36;8.80;;;6.00;;
71610;SDS011;59459;51.172;6.682;2022-08-14T09:47:20;9.98;;;6.38;;
71610;SDS011;59459;51.172;6.682;2022-08-14T09:49:45;9.13;;;6.07;;
71610;SDS011;59459;51.172;6.682;2022-08-14T09:52:11;12.02;;;6.95;;
71610;SDS011;59459;51.172;6.682;2022-08-14T09:57:03;8.95;;;5.75;;
71610;SDS011;59459;51.172;6.682;2022-08-14T09:59:37;11.55;;;6.00;;
71610;SDS011;59459;51.172;6.682;2022-08-14T10:02:03;7.93;;;5.15;;
71610;SDS011;59459;51.172;6.682;2022-08-14T10:04:31;6.87;;;4.90;;
71610;SDS011;59459;51.172;6.682;2022-08-14T10:06:56;6.85;;;4.80;;
71610;SDS011;59459;51.172;6.682;2022-08-14T10:09:22;7.90;;;4.82;;
71610;SDS011;59459;51.172;6.682;2022-08-14T10:11:54;6.77;;;4.60;;
71610;SDS011;59459;51.172;6.682;2022-08-14T10:14:22;6.50;;;4.57;;
71610;SDS011;59459;51.172;6.682;2022-08-14T10:16:51;7.10;;;5.03;;
71610;SDS011;59459;51.172;6.682;2022-08-14T10:19:18;7.60;;;4.95;;
71610;SDS011;59459;51.172;6.682;2022-08-14T10:21:56;8.95;;;5.43;;
71610;SDS011;59459;51.172;6.682;2022-08-14T10:24:25;6.68;;;5.07;;
71610;SDS011;59459;51.172;6.682;2022-08-14T10:26:57;9.83;;;5.07;;
71610;SDS011;59459;51.172;6.682;2022-08-14T10:29:33;8.43;;;5.10;;
71610;SDS011;59459;51.172;6.682;2022-08-14T10:31:59;7.28;;;4.90;;
71610;SDS011;59459;51.172;6.682;2022-08-14T10:34:29;8.73;;;5.38;;
71610;SDS011;59459;51.172;6.682;2022-08-14T10:37:00;7.53;;;5.60;;
71610;SDS011;59459;51.172;6.682;2022-08-14T10:39:27;7.72;;;5.25;;
71610;SDS011;59459;51.172;6.682;2022-08-14T10:42:00;7.90;;;4.88;;
71610;SDS011;59459;51.172;6.682;2022-08-14T10:44:36;8.52;;;4.88;;
71610;SDS011;59459;51.172;6.682;2022-08-14T10:47:02;7.27;;;5.30;;
71610;SDS011;59459;51.172;6.682;2022-08-14T10:49:31;7.32;;;5.45;;
71610;SDS011;59459;51.172;6.682;2022-08-14T10:54:30;7.47;;;5.03;;
71610;SDS011;59459;51.172;6.682;2022-08-14T10:56:57;6.85;;;4.25;;
71610;SDS011;59459;51.172;6.682;2022-08-14T10:59:22;6.97;;;4.63;;
71610;SDS011;59459;51.172;6.682;2022-08-14T11:01:48;7.70;;;5.28;;
71610;SDS011;59459;51.172;6.682;2022-08-14T11:04:22;7.07;;;4.90;;
71610;SDS011;59459;51.172;6.682;2022-08-14T11:06:52;7.35;;;4.40;;
71610;SDS011;59459;51.172;6.682;2022-08-14T11:09:17;7.27;;;5.03;;
71610;SDS011;59459;51.172;6.682;2022-08-14T11:11:43;7.43;;;4.77;;
71610;SDS011;59459;51.172;6.682;2022-08-14T11:14:08;5.87;;;4.43;;
71610;SDS011;59459;51.172;6.682;2022-08-14T11:16:33;7.40;;;5.37;;
71610;SDS011;59459;51.172;6.682;2022-08-14T11:19:00;8.82;;;4.40;;
71610;SDS011;59459;51.172;6.682;2022-08-14T11:21:26;5.68;;;4.03;;
71610;SDS011;59459;51.172;6.682;2022-08-14T11:23:53;6.57;;;4.35;;
71610;SDS011;59459;51.172;6.682;2022-08-14T11:26:19;6.23;;;4.50;;
71610;SDS011;59459;51.172;6.682;2022-08-14T11:28:48;7.10;;;4.50;;
71610;SDS011;59459;51.172;6.682;2022-08-14T11:31:13;6.93;;;4.93;;
71610;SDS011;59459;51.172;6.682;2022-08-14T11:33:39;5.70;;;4.73;;
71610;SDS011;59459;51.172;6.682;2022-08-14T11:36:06;7.38;;;4.78;;
71610;SDS011;59459;51.172;6.682;2022-08-14T11:38:41;7.60;;;4.78;;
71610;SDS011;59459;51.172;6.682;2022-08-14T11:41:07;6.90;;;5.10;;
71610;SDS011;59459;51.172;6.682;2022-08-14T11:43:42;7.13;;;4.83;;
71610;SDS011;59459;51.172;6.682;2022-08-14T11:46:08;7.38;;;4.85;;
71610;SDS011;59459;51.172;6.682;2022-08-14T11:48:43;6.53;;;5.30;;
71610;SDS011;59459;51.172;6.682;2022-08-14T11:51:12;5.20;;;4.43;;
71610;SDS011;59459;51.172;6.682;2022-08-14T11:53:38;6.47;;;5.00;;
71610;SDS011;59459;51.172;6.682;2022-08-14T11:56:05;5.30;;;4.63;;
71610;SDS011;59459;51.172;6.682;2022-08-14T11:58:34;6.07;;;5.35;;
71610;SDS011;59459;51.172;6.682;2022-08-14T12:01:01;7.80;;;5.07;;
71610;SDS011;59459;51.172;6.682;2022-08-14T12:06:15;5.93;;;4.95;;
71610;SDS011;59459;51.172;6.682;2022-08-14T12:08:40;6.38;;;5.78;;
71610;SDS011;59459;51.172;6.682;2022-08-14T12:11:07;6.00;;;5.40;;
71610;SDS011;59459;51.172;6.682;2022-08-14T12:13:33;6.20;;;5.53;;
71610;SDS011;59459;51.172;6.682;2022-08-14T12:15:59;8.65;;;5.75;;
71610;SDS011;59459;51.172;6.682;2022-08-14T12:18:31;7.88;;;7.07;;
71610;SDS011;59459;51.172;6.682;2022-08-14T12:20:56;6.95;;;5.72;;
71610;SDS011;59459;51.172;6.682;2022-08-14T12:23:23;6.57;;;4.93;;
71610;SDS011;59459;51.172;6.682;2022-08-14T12:25:49;5.78;;;5.20;;
71610;SDS011;59459;51.172;6.682;2022-08-14T12:28:15;6.80;;;5.43;;
71610;SDS011;59459;51.172;6.682;2022-08-14T12:30:43;6.68;;;5.22;;
71610;SDS011;59459;51.172;6.682;2022-08-14T12:35:46;5.90;;;4.90;;
71610;SDS011;59459;51.172;6.682;2022-08-14T12:38:14;6.18;;;4.60;;
71610;SDS011;59459;51.172;6.682;2022-08-14T12:40:47;6.97;;;4.90;;
71610;SDS011;59459;51.172;6.682;2022-08-14T12:43:13;6.45;;;4.60;;
71610;SDS011;59459;51.172;6.682;2022-08-14T12:45:44;6.15;;;4.82;;
71610;SDS011;59459;51.172;6.682;2022-08-14T12:48:11;6.93;;;4.80;;
71610;SDS011;59459;51.172;6.682;2022-08-14T12:50:38;5.82;;;3.80;;
71610;SDS011;59459;51.172;6.682;2022-08-14T12:53:04;6.32;;;4.47;;
71610;SDS011;59459;51.172;6.682;2022-08-14T12:55:30;8.20;;;4.50;;
71610;SDS011;59459;51.172;6.682;2022-08-14T12:57:58;6.80;;;4.80;;
71610;SDS011;59459;51.172;6.682;2022-08-14T13:00:25;7.03;;;4.75;;
71610;SDS011;59459;51.172;6.682;2022-08-14T13:02:51;7.63;;;4.50;;
71610;SDS011;59459;51.172;6.682;2022-08-14T13:05:18;7.50;;;4.50;;
71610;SDS011;59459;51.172;6.682;2022-08-14T13:07:46;6.32;;;4.30;;
71610;SDS011;59459;51.172;6.682;2022-08-14T13:10:12;6.60;;;4.63;;
71610;SDS011;59459;51.172;6.682;2022-08-14T13:12:41;6.60;;;4.10;;
71610;SDS011;59459;51.172;6.682;2022-08-14T13:15:08;6.65;;;4.20;;
71610;SDS011;59459;51.172;6.682;2022-08-14T13:17:37;7.45;;;3.67;;
71610;SDS011;59459;51.172;6.682;2022-08-14T13:20:03;6.22;;;4.05;;
71610;SDS011;59459;51.172;6.682;2022-08-14T13:22:28;6.20;;;3.80;;
71610;SDS011;59459;51.172;6.682;2022-08-14T13:24:54;5.90;;;4.00;;
71610;SDS011;59459;51.172;6.682;2022-08-14T13:27:23;6.17;;;3.77;;
71610;SDS011;59459;51.172;6.682;2022-08-14T13:29:51;6.63;;;4.20;;
71610;SDS011;59459;51.172;6.682;2022-08-14T13:32:20;7.78;;;4.60;;
71610;SDS011;59459;51.172;6.682;2022-08-14T13:34:46;6.47;;;4.00;;
71610;SDS011;59459;51.172;6.682;2022-08-14T13:37:15;6.28;;;4.40;;
71610;SDS011;59459;51.172;6.682;2022-08-14T13:39:44;7.75;;;3.67;;
71610;SDS011;59459;51.172;6.682;2022-08-14T13:42:10;5.90;;;3.63;;
71610;SDS011;59459;51.172;6.682;2022-08-14T13:44:38;5.00;;;3.40;;
71610;SDS011;59459;51.172;6.682;2022-08-14T13:47:04;6.07;;;3.60;;
71610;SDS011;59459;51.172;6.682;2022-08-14T13:49:31;5.65;;;4.10;;
71610;SDS011;59459;51.172;6.682;2022-08-14T13:51:57;5.22;;;3.60;;
71610;SDS011;59459;51.172;6.682;2022-08-14T13:54:22;5.67;;;4.00;;
71610;SDS011;59459;51.172;6.682;2022-08-14T13:56:50;6.38;;;3.72;;
71610;SDS011;59459;51.172;6.682;2022-08-14T13:59:15;6.10;;;3.75;;
71610;SDS011;59459;51.172;6.682;2022-08-14T14:01:40;5.93;;;3.73;;
71610;SDS011;59459;51.172;6.682;2022-08-14T14:04:08;6.03;;;4.03;;
71610;SDS011;59459;51.172;6.682;2022-08-14T14:06:37;6.85;;;3.88;;
71610;SDS011;59459;51.172;6.682;2022-08-14T14:09:02;5.97;;;4.13;;
71610;SDS011;59459;51.172;6.682;2022-08-14T14:11:28;6.65;;;4.00;;
71610;SDS011;59459;51.172;6.682;2022-08-14T14:13:54;5.47;;;3.80;;
71610;SDS011;59459;51.172;6.682;2022-08-14T14:16:21;5.68;;;4.03;;
71610;SDS011;59459;51.172;6.682;2022-08-14T14:18:47;6.33;;;3.70;;
71610;SDS011;59459;51.172;6.682;2022-08-14T14:21:16;6.43;;;3.95;;
71610;SDS011;59459;51.172;6.682;2022-08-14T14:23:41;7.82;;;4.28;;
71610;SDS011;59459;51.172;6.682;2022-08-14T14:26:08;6.50;;;4.00;;
71610;SDS011;59459;51.172;6.682;2022-08-14T14:28:34;7.18;;;4.10;;
71610;SDS011;59459;51.172;6.682;2022-08-14T14:31:03;7.07;;;4.20;;
71610;SDS011;59459;51.172;6.682;2022-08-14T14:33:29;6.20;;;4.15;;
71610;SDS011;59459;51.172;6.682;2022-08-14T14:35:54;5.67;;;3.73;;
71610;SDS011;59459;51.172;6.682;2022-08-14T14:38:20;5.10;;;3.70;;
71610;SDS011;59459;51.172;6.682;2022-08-14T14:40:46;5.95;;;3.55;;
71610;SDS011;59459;51.172;6.682;2022-08-14T14:43:13;8.23;;;4.07;;
71610;SDS011;59459;51.172;6.682;2022-08-14T14:45:39;9.80;;;3.90;;
71610;SDS011;59459;51.172;6.682;2022-08-14T14:48:07;6.03;;;3.80;;
71610;SDS011;59459;51.172;6.682;2022-08-14T14:50:34;5.85;;;3.90;;
71610;SDS011;59459;51.172;6.682;2022-08-14T14:53:02;5.80;;;3.72;;
71610;SDS011;59459;51.172;6.682;2022-08-14T14:55:27;6.80;;;3.70;;
71610;SDS011;59459;51.172;6.682;2022-08-14T14:57:53;6.10;;;4.03;;
71610;SDS011;59459;51.172;6.682;2022-08-14T15:00:19;8.77;;;4.37;;